Latest Weather Observations for Redcliffe

IDQ60901

Issued at 8:41 pm EST Monday 31 August 2015 (issued every 10 minutes, with the page automatically refreshed every 10 minutes)

About weather observations | Map of Brisbane area stations | Latest observations for Brisbane area | Other Formats
Station Details ID: 040958 Name: REDCLIFFE Lat: -27.22 Lon: 153.09 Height: 12.6 m
Data from the previous 72 hours. | See also: Recent months at Redcliffe
Date/Time
EST
Tmp

°C
App
Tmp
°C
Dew
Point
°C
Rel
Hum
%
Delta-T

°C
Wind Press
QNH
hPa
Press
MSL
hPa
Rain
since
9 am
mm
Dir
 
Spd
km/h
Gust
km/h
Spd
kts
Gust
kts
31/08:30pm 15.3 14.2 11.9 80 1.8 WNW 9 11 5 6 1015.5 1015.5 0.0
31/08:00pm 16.6 15.6 12.4 76 2.3 NW 9 11 5 6 1015.3 1015.3 0.0
31/07:30pm 17.1 15.3 12.2 73 2.7 NNW 13 17 7 9 1015.1 1015.1 0.0
31/07:00pm 17.9 15.7 12.1 69 3.2 N 15 19 8 10 1014.8 1014.8 0.0
31/06:30pm 18.3 16.0 11.6 65 3.7 N 15 22 8 12 1014.4 1014.4 0.0
31/06:00pm 18.4 16.1 10.3 59 4.3 N 13 15 7 8 1014.2 1014.2 0.0
31/05:30pm 18.9 16.7 9.4 54 5.0 NNE 11 13 6 7 1013.9 1013.9 0.0
31/05:00pm 19.1 16.4 9.0 52 5.3 ENE 13 15 7 8 1013.5 1013.5 0.0
31/04:30pm 19.5 16.8 9.1 51 5.5 ENE 13 15 7 8 1013.2 1013.2 0.0
31/04:00pm 19.9 17.3 9.2 50 5.7 ENE 13 13 7 7 1013.1 1013.1 0.0
31/03:30pm 20.1 17.4 8.8 48 5.9 ENE 13 15 7 8 1013.1 1013.1 0.0
31/03:00pm 20.3 17.3 9.2 49 5.9 ENE 15 15 8 8 1013.2 1013.2 0.0
31/02:30pm 20.3 17.1 8.6 47 6.1 E 15 15 8 8 1013.3 1013.3 0.0
31/02:00pm 20.3 17.5 8.6 47 6.1 ENE 13 17 7 9 1013.6 1013.6 0.0
31/01:30pm 20.1 17.0 8.8 48 5.9 ENE 15 17 8 9 1013.9 1013.9 0.0
31/01:00pm 19.9 16.5 9.2 50 5.7 E 17 19 9 10 1014.1 1014.1 0.0
31/12:30pm 19.6 16.6 9.2 51 5.5 E 15 17 8 9 1014.3 1014.3 0.0
31/12:00pm 20.7 17.5 8.4 45 6.4 SSE 15 17 8 9 1014.6 1014.6 0.0
31/11:30am 21.2 18.1 8.8 45 6.6 SSE 15 19 8 10 1015.1 1015.1 0.0
31/11:00am 20.8 17.6 8.4 45 6.5 SSE 15 19 8 10 1015.7 1015.7 0.0
31/10:30am 20.1 16.4 7.8 45 6.3 S 17 26 9 14 1016.0 1016.0 0.0
31/10:00am 19.2 15.6 6.7 44 6.3 SW 15 22 8 12 1016.4 1016.4 0.0
31/09:30am 18.2 13.6 6.4 46 5.8 WSW 20 26 11 14 1016.6 1016.6 0.0
31/09:00am 17.4 13.2 5.7 46 5.7 SW 17 26 9 14 1016.7 1016.7 0.0
31/08:30am 16.3 12.3 4.7 46 5.5 WSW 15 19 8 10 1016.8 1016.8 0.0
31/08:00am 14.9 10.4 4.3 49 4.9 W 17 20 9 11 1016.7 1016.7 0.0
31/07:30am 13.2 9.1 4.4 55 4.0 W 15 19 8 10 1016.4 1016.4 0.0
31/07:00am 11.8 8.1 4.5 61 3.3 WSW 13 17 7 9 1016.3 1016.3 0.0
31/06:30am 11.3 7.5 3.8 60 3.3 WSW 13 19 7 10 1016.1 1016.1 0.0
31/06:00am 11.0 6.8 3.8 61 3.2 WSW 15 22 8 12 1015.7 1015.7 0.0
31/05:30am 11.0 6.8 3.8 61 3.2 WSW 15 20 8 11 1015.6 1015.6 0.0
31/05:00am 11.7 7.9 3.7 58 3.6 WSW 13 17 7 9 1015.5 1015.5 0.0
31/04:30am 11.5 7.3 4.0 60 3.4 WSW 15 19 8 10 1015.4 1015.4 0.0
31/04:00am 12.1 8.2 3.6 56 3.8 WSW 13 19 7 10 1015.4 1015.4 0.0
31/03:30am 12.7 8.1 3.6 54 4.1 WSW 17 20 9 11 1015.1 1015.1 0.0
31/03:00am 12.8 8.2 3.5 53 4.2 W 17 22 9 12 1015.3 1015.3 0.0
31/02:30am 12.9 8.3 3.8 54 4.1 W 17 24 9 13 1015.6 1015.6 0.0
31/02:00am 13.2 8.6 3.8 53 4.2 W 17 24 9 13 1015.8 1015.8 0.0
31/01:30am 13.3 9.2 4.2 54 4.1 W 15 19 8 10 1015.9 1015.9 0.0
31/01:00am 13.6 9.4 3.9 52 4.4 W 15 26 8 14 1016.1 1016.1 0.0
31/12:30am 13.7 9.6 4.3 53 4.3 WSW 15 20 8 11 1016.4 1016.4 0.0
31/12:00am 13.8 9.9 5.4 57 3.9 WSW 15 20 8 11 1016.6 1016.6 0.0
 
Date/Time
EST
Tmp

°C
App
Tmp
°C
Dew
Point
°C
Rel
Hum
%
Delta-T

°C
Wind Press
QNH
hPa
Press
MSL
hPa
Rain
since
9 am
mm
Dir
 
Spd
km/h
Gust
km/h
Spd
kts
Gust
kts
30/11:30pm 14.0 10.2 5.6 57 4.0 WSW 15 24 8 13 1016.7 1016.7 0.0
30/11:00pm 14.7 10.7 4.7 51 4.7 WSW 15 19 8 10 1016.8 1016.8 0.0
30/10:30pm 15.0 11.3 4.4 49 4.9 W 13 15 7 8 1016.9 1016.9 0.0
30/10:00pm 15.8 11.6 3.9 45 5.5 W 15 26 8 14 1016.8 1016.8 0.0
30/09:30pm 16.3 11.9 4.7 46 5.5 WSW 17 28 9 15 1016.9 1016.9 0.0
30/09:00pm 16.1 13.1 6.0 51 4.9 WSW 11 17 6 9 1016.7 1016.7 0.0
30/08:30pm 16.1 12.8 4.8 47 5.3 WSW 11 15 6 8 1016.6 1016.6 0.0
30/08:00pm 17.1 14.1 4.1 42 6.1 W 9 13 5 7 1016.4 1016.4 0.0
30/07:30pm 17.0 13.5 3.7 41 6.2 WSW 11 15 6 8 1016.1 1016.1 0.0
30/07:00pm 17.4 14.4 4.0 41 6.3 WSW 9 17 5 9 1015.6 1015.6 0.0
30/06:30pm 17.5 13.5 3.0 38 6.7 WNW 13 15 7 8 1014.9 1014.9 0.0
30/06:00pm 18.2 14.1 2.5 35 7.2 WNW 13 17 7 9 1014.7 1014.7 0.0
30/05:30pm 19.2 14.7 2.1 32 7.8 W 15 26 8 14 1014.4 1014.4 0.0
30/05:00pm 20.2 15.3 2.1 30 8.3 W 17 26 9 14 1014.0 1014.0 0.0
30/04:30pm 20.9 15.3 1.2 27 9.0 WSW 20 33 11 18 1013.7 1013.7 0.0
30/04:00pm 21.4 16.3 3.1 30 8.7 WSW 19 32 10 17 1013.8 1013.8 0.0
30/03:30pm 21.4 16.2 2.2 28 9.0 WSW 19 32 10 17 1013.7 1013.7 0.0
30/03:00pm 22.1 17.0 4.2 31 8.7 WSW 20 28 11 15 1013.9 1013.9 0.0
30/02:30pm 21.8 16.9 5.3 34 8.2 WSW 20 30 11 16 1013.9 1013.9 0.0
30/02:00pm 21.5 16.2 3.2 30 8.7 WSW 20 28 11 15 1014.1 1014.1 0.0
30/01:30pm 21.6 17.3 5.1 34 8.2 W 17 26 9 14 1014.4 1014.4 0.0
30/01:00pm 21.6 16.9 5.1 34 8.1 WSW 19 37 10 20 1014.8 1014.8 0.0
30/12:30pm 21.0 16.2 5.4 36 7.7 WSW 20 35 11 19 1015.2 1015.2 0.0
30/12:00pm 20.7 16.2 6.3 39 7.2 SW 19 26 10 14 1015.7 1015.7 0.0
30/11:30am 20.2 15.1 5.8 39 7.1 WSW 22 33 12 18 1016.2 1016.2 0.0
30/11:00am 20.0 16.0 6.7 42 6.7 WSW 17 30 9 16 1016.8 1016.8 0.0
30/10:30am 19.8 15.5 7.2 44 6.4 SW 19 28 10 15 1017.1 1017.1 0.0
30/10:00am 18.9 14.6 8.0 49 5.6 WSW 20 28 11 15 1017.5 1017.5 0.0
30/09:30am 18.6 14.3 7.1 47 5.8 WSW 19 26 10 14 1017.8 1017.8 0.0
30/09:00am 17.8 14.1 9.4 58 4.4 WSW 19 26 10 14 1017.8 1017.8 19.0
30/08:30am 16.7 13.9 10.1 65 3.5 W 15 22 8 12 1017.9 1017.9 19.0
30/08:00am 15.5 13.0 11.1 75 2.3 WSW 15 19 8 10 1017.5 1017.5 19.0
30/07:30am 14.9 13.8 11.9 82 1.6 WNW 9 11 5 6 1017.5 1017.5 19.0
30/07:00am 14.9 13.5 12.2 84 1.5 W 11 15 6 8 1017.6 1017.6 19.0
30/06:30am 14.8 13.6 12.8 88 1.1 W 11 15 6 8 1017.3 1017.3 19.0
30/06:00am 14.6 13.5 13.0 90 0.9 WNW 11 15 6 8 1017.2 1017.2 19.0
30/05:30am 14.9 14.3 13.4 91 0.8 WNW 9 13 5 7 1016.8 1016.8 19.0
30/05:00am 14.9 14.3 13.4 91 0.8 W 9 11 5 6 1016.7 1016.7 19.0
30/04:30am 14.9 14.0 13.6 92 0.7 WSW 11 15 6 8 1016.7 1016.7 19.0
30/04:00am 15.2 14.4 13.9 92 0.7 SW 11 15 6 8 1016.3 1016.3 19.0
30/03:30am 15.3 14.8 13.8 91 0.8 W 9 11 5 6 1016.7 1016.7 19.0
30/03:00am 15.5 15.1 14.2 92 0.7 WSW 9 15 5 8 1017.2 1017.2 19.0
30/02:30am 15.5 14.7 14.0 91 0.8 W 11 17 6 9 1017.6 1017.6 19.0
30/02:00am 15.8 15.5 14.3 91 0.9 NE 9 11 5 6 1016.6 1016.6 19.0
30/01:30am 15.6 15.2 14.1 91 0.8 WNW 9 11 5 6 1017.7 1017.7 19.0
30/01:00am 15.7 15.3 14.1 90 0.9 WNW 9 11 5 6 1018.9 1018.9 18.6
30/12:30am 15.7 15.3 14.2 91 0.9 W 9 11 5 6 1019.1 1019.1 18.6
30/12:00am 15.8 15.5 14.5 92 0.7 W 9 13 5 7 1019.3 1019.3 18.4
 
Date/Time
EST
Tmp

°C
App
Tmp
°C
Dew
Point
°C
Rel
Hum
%
Delta-T

°C
Wind Press
QNH
hPa
Press
MSL
hPa
Rain
since
9 am
mm
Dir
 
Spd
km/h
Gust
km/h
Spd
kts
Gust
kts
29/11:30pm 15.8 14.8 14.5 92 0.7 W 13 17 7 9 1019.4 1019.4 18.4
29/11:00pm 15.8 15.5 14.5 92 0.7 WSW 9 11 5 6 1019.2 1019.2 18.2
29/10:30pm 16.1 15.9 14.8 92 0.7 S 9 11 5 6 1019.0 1019.0 18.2
29/10:00pm 16.1 15.6 14.8 92 0.7 SSE 11 13 6 7 1019.2 1019.2 18.2
29/09:30pm 16.0 15.0 14.7 92 0.7 SE 13 17 7 9 1019.3 1019.3 18.2
29/09:00pm 16.0 15.0 14.7 92 0.7 SE 13 17 7 9 1020.0 1020.0 17.6
29/08:30pm 15.8 15.1 14.3 91 0.9 SSE 11 15 6 8 1020.0 1020.0 16.6
29/08:00pm 15.8 15.8 14.3 91 0.9 WSW 7 11 4 6 1020.4 1020.4 15.0
29/07:30pm 15.8 15.5 14.3 91 0.9 SW 9 13 5 7 1020.4 1020.4 13.4
29/07:00pm 15.9 14.8 14.4 91 0.9 SSW 13 15 7 8 1020.3 1020.3 12.8
29/06:30pm 16.0 14.2 14.5 91 0.9 SSW 17 22 9 12 1020.1 1020.1 11.8
29/06:00pm 16.2 14.1 14.6 90 0.9 SSW 19 24 10 13 1020.1 1020.1 8.0
29/05:30pm 16.4 13.9 14.1 86 1.3 SW 20 32 11 17 1019.2 1019.2 5.0
29/05:00pm 19.4 18.7 14.2 72 3.0 E 11 13 6 7 1018.5 1018.5 0.2
29/04:30pm 19.8 18.6 14.0 69 3.3 E 13 15 7 8 1018.3 1018.3 0.0
29/04:00pm 20.2 19.9 13.4 65 3.9 E 7 9 4 5 1018.2 1018.2 0.0
29/03:30pm 20.3 19.6 12.0 59 4.6 SE 7 9 4 5 1018.3 1018.3 0.0
29/03:00pm 20.5 19.6 12.5 60 4.5 SE 9 11 5 6 1018.3 1018.3 0.0
29/02:30pm 20.5 18.9 11.4 56 5.0 SE 11 13 6 7 1019.0 1019.0 0.0
29/02:00pm 20.4 18.2 10.8 54 5.2 SE 13 15 7 8 1019.4 1019.4 0.0
29/01:30pm 20.9 18.7 10.7 52 5.6 SE 13 15 7 8 1019.7 1019.7 0.0
29/01:00pm 20.8 19.3 10.6 52 5.5 SE 9 11 5 6 1020.5 1020.5 0.0
29/12:30pm 20.8 18.8 10.3 51 5.7 SSE 11 13 6 7 1021.1 1021.1 0.0
29/12:00pm 20.8 18.8 10.0 50 5.8 SSE 11 15 6 8 1021.6 1021.6 0.0
29/11:30am 21.6 19.2 10.1 48 6.2 SSE 13 15 7 8 1021.8 1021.8 0.0
29/11:00am 21.2 18.9 10.4 50 5.9 S 13 15 7 8 1022.2 1022.2 0.0
29/10:30am 21.4 18.4 10.6 50 5.9 S 17 19 9 10 1022.6 1022.6 0.0
29/10:00am 20.3 17.1 9.8 51 5.6 S 17 22 9 12 1022.7 1022.7 0.0
29/09:30am 19.6 16.9 10.3 55 5.0 S 15 20 8 11 1023.0 1023.0 0.0
29/09:00am 18.2 16.1 11.3 64 3.7 SSW 13 17 7 9 1023.3 1023.3 0.2
29/08:30am 16.7 14.3 9.9 64 3.6 SSW 13 19 7 10 1023.1 1023.1 0.2
29/08:00am 14.9 12.7 9.3 69 2.9 SSW 11 15 6 8 1022.9 1022.9 0.2
29/07:30am 14.1 12.6 9.3 73 2.5 SW 7 11 4 6 1022.8 1022.8 0.2
29/07:00am 13.1 11.2 9.0 76 2.1 SW 9 11 5 6 1022.6 1022.6 0.2
29/06:30am 12.6 10.2 8.7 77 1.9 WSW 11 15 6 8 1022.4 1022.4 0.2
29/06:00am 12.2 8.9 8.1 76 2.0 SW 15 20 8 11 1022.2 1022.2 0.2
29/05:30am 12.4 9.8 7.9 74 2.2 SW 11 13 6 7 1021.7 1021.7 0.2
29/05:00am 12.5 9.1 7.8 73 2.3 SW 15 17 8 9 1021.6 1021.6 0.2
29/04:30am 12.6 9.3 7.9 73 2.3 SW 15 20 8 11 1021.3 1021.3 0.2
29/04:00am 12.5 8.8 7.8 73 2.3 SW 17 20 9 11 1021.3 1021.3 0.2
29/03:30am 12.7 9.1 8.2 74 2.2 SW 17 19 9 10 1021.6 1021.6 0.2
29/03:00am 13.0 10.0 7.9 71 2.5 SW 13 17 7 9 1021.7 1021.7 0.2
29/02:30am 13.2 10.2 9.3 77 2.0 SW 15 17 8 9 1021.9 1021.9 0.2
29/02:00am 13.2 10.3 9.8 80 1.7 SW 15 17 8 9 1021.9 1021.9 0.2
29/01:30am 13.4 11.0 10.2 81 1.7 WSW 13 17 7 9 1022.0 1022.0 0.2
29/01:00am 13.7 11.5 10.9 83 1.5 WSW 13 15 7 8 1022.3 1022.3 0.2
29/12:30am 13.8 11.7 11.1 84 1.4 WSW 13 15 7 8 1022.2 1022.2 0.2
29/12:00am 14.3 12.4 11.8 85 1.3 WSW 13 15 7 8 1022.4 1022.4 0.2
 
Date/Time
EST
Tmp

°C
App
Tmp
°C
Dew
Point
°C
Rel
Hum
%
Delta-T

°C
Wind Press
QNH
hPa
Press
MSL
hPa
Rain
since
9 am
mm
Dir
 
Spd
km/h
Gust
km/h
Spd
kts
Gust
kts
28/11:30pm 14.5 12.7 12.0 85 1.4 WSW 13 15 7 8 1022.3 1022.3 0.2
28/11:00pm 14.9 13.4 11.9 82 1.6 SW 11 13 6 7 1022.1 1022.1 0.2
28/10:30pm 15.0 13.2 12.0 82 1.6 SW 13 15 7 8 1022.4 1022.4 0.2
28/10:00pm 15.3 13.5 12.1 81 1.7 S 13 15 7 8 1022.5 1022.5 0.2
28/09:30pm 16.0 14.2 12.2 78 2.1 SSE 13 15 7 8 1022.6 1022.6 0.2
28/09:00pm 17.1 14.9 12.0 72 2.8 SSE 15 17 8 9 1022.5 1022.5 0.2

Latest Capital City Observations: Canberra | Sydney | Melbourne | Brisbane | Adelaide | Perth | Hobart | Darwin

Other Formats:

Comma delimited format used in spreadsheet applications
http://www.bom.gov.au/fwo/IDQ60901/IDQ60901.95591.axf

JavaScript Object Notation format (JSON) in row-major order
http://www.bom.gov.au/fwo/IDQ60901/IDQ60901.95591.json